Time;durP1;ratioP1;P1;durP2;ratioP2;P2;SDS_P1;SDS_P2;PMS_P1;PMS_P2;Temp;Humidity;BMP_temperature;BMP_pressure;BME280_temperature;BME280_humidity;BME280_pressure;Samples;Min_cycle;Max_cycle;Signal;HPM_P1;HPM_P2
2022/02/20 00:01:05;;;;;;;14.43;5.35;;;;;;;6.11;43.00;99650.72;5007471;28;20083;-69
2022/02/20 00:03:32;;;;;;;17.08;6.55;;;;;;;6.06;43.10;99652.78;5005616;28;20469;-71
2022/02/20 00:05:59;;;;;;;15.40;6.15;;;;;;;6.00;43.07;99651.41;5007521;28;20132;-71
2022/02/20 00:08:27;;;;;;;12.65;4.28;;;;;;;5.97;43.12;99653.38;5007577;28;20046;-70
2022/02/20 00:10:55;;;;;;;10.30;5.30;;;;;;;5.90;43.44;99658.13;5006292;28;20137;-69
2022/02/20 00:13:22;;;;;;;11.13;5.72;;;;;;;5.86;43.46;99651.41;5007240;28;20068;-72
2022/02/20 00:15:49;;;;;;;14.80;6.65;;;;;;;5.79;43.58;99650.94;5007012;28;20116;-70
2022/02/20 00:18:16;;;;;;;10.40;5.78;;;;;;;5.73;43.58;99640.84;5005455;28;20046;-70
2022/02/20 00:20:44;;;;;;;16.17;5.05;;;;;;;5.68;43.82;99648.13;5007184;28;20630;-75
2022/02/20 00:23:15;;;;;;;17.92;4.75;;;;;;;5.62;43.85;99649.38;5005221;28;20136;-74
2022/02/20 00:25:43;;;;;;;7.20;4.18;;;;;;;5.55;44.02;99648.88;5006555;28;20076;-70
2022/02/20 00:28:12;;;;;;;12.43;4.65;;;;;;;5.50;44.20;99650.94;5007191;28;20124;-70
2022/02/20 00:30:39;;;;;;;9.07;4.38;;;;;;;5.45;44.17;99647.75;5006174;28;20133;-73
2022/02/20 00:33:06;;;;;;;10.88;3.40;;;;;;;5.39;44.28;99645.53;5006885;28;20065;-70
2022/02/20 00:35:34;;;;;;;11.02;5.60;;;;;;;5.34;44.40;99639.72;5005370;28;20056;-71
2022/02/20 00:38:02;;;;;;;15.90;5.80;;;;;;;5.30;44.49;99649.53;5005489;28;20057;-70
2022/02/20 00:40:29;;;;;;;9.60;4.20;;;;;;;5.27;44.48;99646.25;5005434;28;20049;-73
2022/02/20 00:42:56;;;;;;;13.70;5.88;;;;;;;5.20;44.59;99643.16;5006027;28;20046;-71
2022/02/20 00:45:25;;;;;;;8.07;4.03;;;;;;;5.17;44.62;99635.50;5006249;28;20050;-70
2022/02/20 00:47:52;;;;;;;10.98;4.15;;;;;;;5.14;44.73;99630.44;5007375;28;20525;-72
2022/02/20 00:50:19;;;;;;;9.48;5.28;;;;;;;5.08;44.73;99636.91;5006487;28;20076;-69
2022/02/20 00:52:46;;;;;;;10.82;4.45;;;;;;;5.06;44.95;99630.06;5005482;28;20046;-73
2022/02/20 00:55:13;;;;;;;12.27;4.82;;;;;;;5.02;44.96;99629.41;5004329;28;20088;-72
2022/02/20 00:57:40;;;;;;;11.68;5.10;;;;;;;4.98;45.10;99630.53;5007284;28;20048;-70
2022/02/20 01:00:11;;;;;;;16.13;5.85;;;;;;;4.94;45.16;99631.66;5006495;28;20371;-69
2022/02/20 01:02:40;;;;;;;12.73;4.97;;;;;;;4.88;45.18;99627.63;5006006;28;20145;-70
2022/02/20 01:05:08;;;;;;;11.85;4.25;;;;;;;4.86;45.27;99615.53;5006734;28;20682;-70
2022/02/20 01:07:36;;;;;;;9.18;4.72;;;;;;;4.86;45.30;99623.38;5004883;28;20050;-70
2022/02/20 01:10:04;;;;;;;9.80;3.80;;;;;;;4.88;45.37;99619.78;5007129;28;20050;-69
2022/02/20 01:12:31;;;;;;;9.27;3.83;;;;;;;4.87;45.24;99607.59;5008121;28;20080;-71
2022/02/20 01:14:58;;;;;;;10.02;4.38;;;;;;;4.87;45.43;99614.63;5006855;28;20136;-74
2022/02/20 01:17:25;;;;;;;14.05;4.60;;;;;;;4.86;45.45;99618.16;5006043;28;20128;-69
2022/02/20 01:19:53;;;;;;;11.38;4.85;;;;;;;4.85;45.64;99604.25;5006152;28;20045;-72
2022/02/20 01:22:21;;;;;;;8.25;4.22;;;;;;;4.89;45.58;99607.53;5005232;28;20145;-70
2022/02/20 01:24:48;;;;;;;10.88;3.45;;;;;;;4.95;45.30;99608.00;5004700;28;20710;-67
2022/02/20 01:27:15;;;;;;;13.23;4.25;;;;;;;5.05;45.29;99612.69;5006314;28;20046;-72
2022/02/20 01:29:42;;;;;;;15.68;4.97;;;;;;;5.13;45.37;99605.19;5005326;28;20056;-71
2022/02/20 01:32:10;;;;;;;11.20;5.60;;;;;;;5.20;45.25;99597.81;5005511;28;20056;-68
2022/02/20 01:34:37;;;;;;;9.23;4.30;;;;;;;5.30;45.14;99584.06;5006246;28;20127;-69
2022/02/20 01:37:05;;;;;;;8.52;3.88;;;;;;;5.38;45.00;99596.69;5005803;28;20053;-68
2022/02/20 01:39:32;;;;;;;8.05;4.60;;;;;;;5.37;45.07;99576.69;5006234;28;20108;-69
2022/02/20 01:42:00;;;;;;;10.10;4.07;;;;;;;5.33;45.17;99575.19;5005900;28;20078;-70
2022/02/20 01:44:27;;;;;;;13.35;4.57;;;;;;;5.32;45.24;99582.19;5005783;28;20180;-69
2022/02/20 01:47:02;;;;;;;10.80;4.18;;;;;;;5.38;45.17;99574.91;5005019;28;20046;-71
2022/02/20 01:49:29;;;;;;;;;;;;;;;5.60;44.57;99567.41;5006111;28;20509;-71
2022/02/20 01:51:56;;;;;;;10.38;4.05;;;;;;;5.35;44.80;99563.69;5005953;28;19921;-69
2022/02/20 01:54:24;;;;;;;6.75;2.97;;;;;;;5.23;45.22;99556.59;5004283;28;20064;-70
2022/02/20 01:56:54;;;;;;;8.90;3.15;;;;;;;5.14;45.18;99555.38;5005733;28;20053;-69
2022/02/20 01:59:22;;;;;;;6.07;2.88;;;;;;;5.04;45.61;99541.19;5006056;28;20080;-72
2022/02/20 02:01:49;;;;;;;10.13;3.47;;;;;;;5.00;45.58;99536.22;5006351;28;20053;-73
2022/02/20 02:04:16;;;;;;;14.95;4.13;;;;;;;4.96;45.74;99538.19;5004637;28;20137;-70
2022/02/20 02:06:43;;;;;;;7.78;3.33;;;;;;;4.92;45.76;99539.31;5006140;28;20133;-74
2022/02/20 02:09:10;;;;;;;4.97;3.30;;;;;;;4.86;45.95;99534.44;5006650;28;20050;-71
2022/02/20 02:11:38;;;;;;;8.05;3.05;;;;;;;4.81;45.90;99531.25;5005482;28;20124;-70
2022/02/20 02:14:05;;;;;;;7.50;3.67;;;;;;;4.75;46.00;99528.09;5005786;28;20048;-70
2022/02/20 02:16:32;;;;;;;11.38;4.40;;;;;;;4.67;46.22;99524.25;5005647;28;20050;-71
2022/02/20 02:19:00;;;;;;;9.38;3.50;;;;;;;4.61;46.31;99525.47;5003630;28;20128;-70
2022/02/20 02:21:27;;;;;;;10.60;4.00;;;;;;;4.57;46.33;99518.69;5005878;28;20042;-71
2022/02/20 02:23:56;;;;;;;8.02;4.20;;;;;;;4.53;46.51;99511.97;5003587;28;20145;-73
2022/02/20 02:26:24;;;;;;;10.25;3.15;;;;;;;4.49;46.42;99511.31;5004829;28;20037;-70
2022/02/20 02:28:51;;;;;;;6.63;2.42;;;;;;;4.46;46.33;99502.81;5005494;28;20049;-71
2022/02/20 02:31:19;;;;;;;10.50;3.25;;;;;;;4.41;46.44;99487.38;4991776;28;20135;-71
2022/02/20 02:33:46;;;;;;;8.38;4.00;;;;;;;4.39;46.50;99490.13;4986902;28;20285;-72
2022/02/20 02:36:14;;;;;;;12.52;3.38;;;;;;;4.36;46.25;99490.28;4987331;28;20061;-73
2022/02/20 02:38:41;;;;;;;8.27;3.92;;;;;;;4.37;46.81;99486.72;4987399;28;20500;-75
2022/02/20 02:41:10;;;;;;;11.30;3.80;;;;;;;4.36;46.59;99489.47;4987220;28;20069;-71
2022/02/20 02:43:39;;;;;;;6.93;3.40;;;;;;;4.34;46.74;99484.31;4987012;28;20042;-71
2022/02/20 02:46:07;;;;;;;10.77;3.35;;;;;;;4.36;46.67;99482.44;4986831;28;20049;-71
2022/02/20 02:48:34;;;;;;;6.75;3.10;;;;;;;4.36;46.69;99487.69;4986700;28;20051;-72
2022/02/20 02:51:01;;;;;;;10.90;4.10;;;;;;;4.41;46.70;99474.31;4986979;28;20072;-69
2022/02/20 02:53:30;;;;;;;7.97;3.88;;;;;;;4.43;46.46;99469.00;4985220;28;20078;-70
2022/02/20 02:55:57;;;;;;;8.43;3.50;;;;;;;4.44;46.57;99473.31;4985974;28;20392;-75
2022/02/20 02:58:27;;;;;;;6.13;3.22;;;;;;;4.45;46.64;99472.34;4986557;28;20137;-68
2022/02/20 03:00:56;;;;;;;9.45;3.53;;;;;;;4.43;46.83;99458.53;4985474;28;20050;-69
2022/02/20 03:03:23;;;;;;;7.88;3.30;;;;;;;4.45;46.69;99467.13;4986307;28;20162;-70
2022/02/20 03:05:51;;;;;;;9.50;3.85;;;;;;;4.44;46.53;99461.06;4985896;28;20046;-72
2022/02/20 03:08:18;;;;;;;14.90;4.25;;;;;;;4.44;46.78;99463.69;4985813;28;20097;-70
2022/02/20 03:10:45;;;;;;;5.90;2.78;;;;;;;4.46;46.71;99467.03;4986787;28;20046;-75
2022/02/20 03:13:13;;;;;;;18.77;3.80;;;;;;;4.47;46.87;99465.28;4986582;28;20076;-69
2022/02/20 03:15:41;;;;;;;13.18;3.67;;;;;;;4.50;46.64;99472.94;4985696;28;20061;-71
2022/02/20 03:18:08;;;;;;;12.48;3.40;;;;;;;4.52;46.50;99473.66;4986891;28;20081;-74
2022/02/20 03:20:35;;;;;;;9.85;4.10;;;;;;;4.54;46.62;99458.75;4986224;28;20085;-69
2022/02/20 03:23:02;;;;;;;10.20;4.18;;;;;;;4.59;46.72;99461.91;4987159;28;20072;-75
2022/02/20 03:25:31;;;;;;;10.27;3.55;;;;;;;4.59;46.56;99452.31;4987501;28;20048;-72
2022/02/20 03:27:58;;;;;;;12.40;2.85;;;;;;;4.62;46.71;99455.66;4986488;28;20049;-77
2022/02/20 03:30:25;;;;;;;7.95;3.15;;;;;;;4.67;46.53;99453.63;4987344;28;20046;-73
2022/02/20 03:32:54;;;;;;;5.78;3.15;;;;;;;4.67;46.44;99446.59;4988813;28;20129;-77
2022/02/20 03:35:21;;;;;;;5.90;2.65;;;;;;;4.68;46.60;99437.84;4987349;28;20522;-71
2022/02/20 03:37:48;;;;;;;11.38;4.20;;;;;;;4.71;46.46;99427.16;4988069;28;20108;-73
2022/02/20 03:40:15;;;;;;;6.68;3.97;;;;;;;4.77;46.37;99418.94;4989728;28;20065;-77
2022/02/20 03:42:42;;;;;;;8.23;4.07;;;;;;;4.82;46.44;99404.75;4988273;28;20052;-77
2022/02/20 03:45:09;;;;;;;6.82;3.55;;;;;;;4.86;46.27;99414.06;4986719;28;20046;-72
2022/02/20 03:47:37;;;;;;;13.02;3.65;;;;;;;4.92;46.15;99403.25;4990731;28;20112;-71
2022/02/20 03:50:07;;;;;;;15.85;4.03;;;;;;;4.96;46.29;99389.84;4985893;28;20134;-72
2022/02/20 03:52:35;;;;;;;8.55;3.40;;;;;;;5.00;46.34;99387.88;4985912;28;20050;-73
2022/02/20 03:55:03;;;;;;;10.75;3.88;;;;;;;5.00;46.25;99387.88;4984968;28;20061;-71
2022/02/20 03:57:32;;;;;;;9.38;4.13;;;;;;;5.02;46.18;99382.56;4985805;28;20120;-70
2022/02/20 04:00:00;;;;;;;7.72;3.50;;;;;;;5.02;46.13;99382.56;4985445;28;20088;-71
2022/02/20 04:02:30;;;;;;;13.50;3.88;;;;;;;5.04;46.12;99380.66;4987598;28;20352;-74
2022/02/20 04:04:57;;;;;;;8.48;4.05;;;;;;;5.05;46.30;99372.72;4986823;28;20043;-73
2022/02/20 04:07:25;;;;;;;9.02;3.65;;;;;;;5.08;46.17;99376.94;4986057;28;20050;-71
2022/02/20 04:09:52;;;;;;;10.00;4.10;;;;;;;5.09;46.04;99384.66;4986245;28;20049;-71
2022/02/20 04:12:19;;;;;;;13.35;4.43;;;;;;;5.13;46.13;99364.38;4985640;28;20050;-71
2022/02/20 04:14:46;;;;;;;8.15;3.53;;;;;;;5.14;45.97;99359.03;4986594;28;20050;-70
2022/02/20 04:17:13;;;;;;;13.55;4.28;;;;;;;5.17;45.99;99351.00;4986034;28;20682;-75
2022/02/20 04:19:40;;;;;;;9.93;4.20;;;;;;;5.21;46.04;99346.41;4986297;28;20072;-70
2022/02/20 04:22:07;;;;;;;12.25;4.68;;;;;;;5.26;45.89;99346.13;4985036;28;20129;-70
2022/02/20 04:24:36;;;;;;;9.90;4.55;;;;;;;5.27;46.01;99340.75;4984519;28;20046;-70
2022/02/20 04:27:03;;;;;;;10.23;3.85;;;;;;;5.32;45.80;99340.47;4985552;28;20418;-74
2022/02/20 04:29:30;;;;;;;9.10;4.05;;;;;;;5.35;45.83;99337.66;4985302;28;20190;-72
2022/02/20 04:31:57;;;;;;;14.85;4.45;;;;;;;5.39;45.74;99338.31;4985124;28;20133;-69
2022/02/20 04:34:24;;;;;;;9.40;3.50;;;;;;;5.44;45.58;99325.72;4984038;28;20125;-71
2022/02/20 04:36:51;;;;;;;9.18;4.10;;;;;;;5.49;45.79;99321.03;4983778;28;20064;-69
2022/02/20 04:39:18;;;;;;;7.80;3.63;;;;;;;5.48;45.67;99314.94;4983691;28;20053;-70
2022/02/20 04:41:47;;;;;;;10.50;3.92;;;;;;;5.50;45.64;99320.91;4985195;28;20131;-70
2022/02/20 04:44:14;;;;;;;8.60;4.25;;;;;;;5.56;45.71;99319.66;4986865;28;20073;-71
2022/02/20 04:46:42;;;;;;;10.25;4.03;;;;;;;5.60;45.50;99321.16;4988461;28;20165;-70
2022/02/20 04:49:09;;;;;;;13.02;4.15;;;;;;;5.61;45.46;99319.38;4987884;28;20050;-69
2022/02/20 04:51:37;;;;;;;12.05;4.85;;;;;;;5.59;45.65;99318.66;4988170;28;20081;-70
2022/02/20 04:54:05;;;;;;;8.80;4.60;;;;;;;5.59;45.65;99314.25;4985989;28;20056;-70
2022/02/20 04:56:32;;;;;;;11.20;4.60;;;;;;;5.63;45.55;99320.09;4986236;28;20057;-71
2022/02/20 04:59:01;;;;;;;8.20;4.10;;;;;;;5.62;45.61;99316.66;4987250;28;20046;-70
2022/02/20 05:01:28;;;;;;;12.35;4.97;;;;;;;5.65;45.89;99316.44;4987219;28;20074;-69
2022/02/20 05:03:55;;;;;;;7.13;4.05;;;;;;;5.67;45.52;99316.34;4986333;28;20057;-70
2022/02/20 05:06:27;;;;;;;10.30;4.53;;;;;;;5.68;45.51;99302.31;4987130;28;20046;-72
2022/02/20 05:08:55;;;;;;;10.88;3.42;;;;;;;5.71;45.47;99300.31;4987461;28;20073;-70
2022/02/20 05:11:24;;;;;;;12.88;3.92;;;;;;;5.73;45.57;99301.03;4986529;28;20046;-70
2022/02/20 05:13:52;;;;;;;15.73;4.50;;;;;;;5.80;45.28;99300.63;4986902;28;20057;-75
2022/02/20 05:16:20;;;;;;;14.27;5.25;;;;;;;5.82;45.27;99302.22;4986485;28;20068;-70
2022/02/20 05:18:47;;;;;;;15.77;4.68;;;;;;;5.86;45.26;99301.06;4986287;28;20184;-71
2022/02/20 05:21:14;;;;;;;16.92;4.38;;;;;;;5.86;45.28;99301.06;4986476;28;20567;-71
2022/02/20 05:23:41;;;;;;;11.75;4.88;;;;;;;5.87;45.28;99299.25;4984796;28;20121;-69
2022/02/20 05:26:08;;;;;;;10.10;4.57;;;;;;;5.87;45.26;99309.75;4986174;28;20506;-72
2022/02/20 05:28:35;;;;;;;9.48;3.90;;;;;;;5.85;45.24;99296.78;4987106;28;20674;-72
2022/02/20 05:31:02;;;;;;;11.18;4.22;;;;;;;5.84;45.35;99300.31;4987169;28;20050;-69
2022/02/20 05:33:30;;;;;;;12.02;6.15;;;;;;;5.84;45.38;99296.88;4986282;28;20056;-68
2022/02/20 05:35:57;;;;;;;13.18;4.97;;;;;;;5.80;45.32;99304.09;4987101;28;20048;-70
2022/02/20 05:38:24;;;;;;;17.23;5.97;;;;;;;5.77;45.40;99291.19;4986713;28;20046;-70
2022/02/20 05:40:52;;;;;;;19.40;6.25;;;;;;;5.74;45.58;99300.13;4987165;28;20066;-74
2022/02/20 05:43:19;;;;;;;17.75;6.20;;;;;;;5.76;45.34;99284.28;4986343;28;20054;-69
2022/02/20 05:45:46;;;;;;;16.25;6.47;;;;;;;5.75;45.54;99287.84;4986491;28;20756;-74
2022/02/20 05:48:13;;;;;;;21.65;7.95;;;;;;;5.73;45.42;99284.50;4998702;28;20048;-76
2022/02/20 05:50:42;;;;;;;27.98;8.02;;;;;;;5.71;45.62;99268.03;5005998;28;20085;-70
2022/02/20 05:53:08;;;;;;;19.45;8.65;;;;;;;5.72;45.28;99262.69;5003937;28;20041;-70
2022/02/20 05:55:37;;;;;;;16.88;7.40;;;;;;;5.70;45.36;99246.22;5005507;28;20056;-70
2022/02/20 05:58:04;;;;;;;15.65;6.03;;;;;;;5.72;45.44;99243.50;5006312;28;20057;-69
2022/02/20 06:00:31;;;;;;;16.73;7.07;;;;;;;5.73;45.38;99242.56;5005267;28;20050;-70
2022/02/20 06:02:58;;;;;;;14.25;6.25;;;;;;;5.75;45.49;99241.50;5005424;28;20042;-70
2022/02/20 06:05:25;;;;;;;15.85;6.05;;;;;;;5.77;45.37;99230.94;5004079;28;20049;-75
2022/02/20 06:07:53;;;;;;;14.02;5.82;;;;;;;5.82;45.54;99241.13;5004526;28;20063;-71
2022/02/20 06:10:20;;;;;;;19.63;7.63;;;;;;;5.84;45.26;99242.66;5005016;28;20600;-71
2022/02/20 06:12:47;;;;;;;14.98;6.95;;;;;;;5.88;45.21;99244.13;5005253;28;20069;-70
2022/02/20 06:15:14;;;;;;;18.83;6.60;;;;;;;5.87;45.29;99238.97;5004514;28;20049;-72
2022/02/20 06:17:41;;;;;;;18.50;6.82;;;;;;;5.89;45.28;99232.72;5004261;28;20080;-71
2022/02/20 06:20:09;;;;;;;13.98;5.57;;;;;;;5.90;45.28;99237.00;5004164;28;20142;-70
2022/02/20 06:22:36;;;;;;;15.43;5.72;;;;;;;5.92;45.27;99232.50;5005348;28;20057;-69
2022/02/20 06:25:06;;;;;;;11.60;5.32;;;;;;;5.97;45.27;99231.38;5003914;28;20042;-69
2022/02/20 06:27:33;;;;;;;16.48;5.78;;;;;;;6.03;45.05;99228.31;5005705;28;20129;-71
2022/02/20 06:29:59;;;;;;;14.50;6.97;;;;;;;6.07;45.24;99219.31;5004665;28;20133;-71
2022/02/20 06:32:26;;;;;;;16.83;8.07;;;;;;;6.11;45.16;99216.34;5005666;28;20060;-71
2022/02/20 06:34:53;;;;;;;14.52;6.57;;;;;;;6.13;45.11;99203.97;5004850;28;20131;-71
2022/02/20 06:37:20;;;;;;;15.50;6.93;;;;;;;6.17;45.05;99207.19;5004766;28;20046;-71
2022/02/20 06:39:47;;;;;;;19.33;8.07;;;;;;;6.18;44.97;99206.25;5005128;28;20146;-70
2022/02/20 06:42:16;;;;;;;19.30;8.57;;;;;;;6.18;45.00;99201.03;5005067;28;20046;-71
2022/02/20 06:44:43;;;;;;;13.68;6.22;;;;;;;6.18;45.06;99201.03;5004265;28;20129;-71
2022/02/20 06:47:11;;;;;;;13.20;6.57;;;;;;;6.18;45.15;99202.81;5004698;28;20046;-71
2022/02/20 06:49:38;;;;;;;13.27;7.05;;;;;;;6.15;45.18;99201.22;5004083;28;20050;-69
2022/02/20 06:52:05;;;;;;;11.75;5.60;;;;;;;6.20;45.04;99203.53;5002026;28;20624;-72
2022/02/20 06:54:33;;;;;;;18.80;7.25;;;;;;;6.25;44.96;99199.63;5002613;28;20134;-75
2022/02/20 06:57:00;;;;;;;20.30;5.88;;;;;;;6.30;44.81;99194.03;5003231;28;20555;-70
2022/02/20 06:59:28;;;;;;;25.45;6.60;;;;;;;6.36;44.78;99191.00;5002322;28;20046;-70
2022/02/20 07:01:55;;;;;;;15.65;5.80;;;;;;;6.40;44.67;99189.81;5003402;28;20052;-72
2022/02/20 07:04:22;;;;;;;11.80;5.93;;;;;;;6.47;44.76;99195.47;5003535;28;20056;-72
2022/02/20 07:06:50;;;;;;;16.98;5.97;;;;;;;6.50;44.58;99197.88;5004012;28;20128;-74
2022/02/20 07:09:17;;;;;;;13.43;5.85;;;;;;;6.52;44.70;99193.34;5003100;28;20108;-69
2022/02/20 07:11:44;;;;;;;14.13;6.60;;;;;;;6.56;44.66;99189.56;5001805;28;20056;-71
2022/02/20 07:14:11;;;;;;;17.70;6.78;;;;;;;6.63;44.41;99197.81;4983277;28;20047;-69
2022/02/20 07:16:40;;;;;;;22.58;8.55;;;;;;;6.62;44.47;99196.97;4987284;28;20133;-70
2022/02/20 07:19:07;;;;;;;18.83;7.65;;;;;;;6.69;44.41;99195.56;4995969;28;20141;-70
2022/02/20 07:21:34;;;;;;;17.95;7.22;;;;;;;6.75;44.22;99188.19;4993309;28;20494;-75
2022/02/20 07:24:01;;;;;;;13.80;7.72;;;;;;;6.78;44.14;99183.56;4990709;28;20054;-74
2022/02/20 07:26:29;;;;;;;16.70;7.47;;;;;;;6.77;44.25;99175.78;4990731;28;20072;-75
2022/02/20 07:28:57;;;;;;;18.10;6.65;;;;;;;6.80;44.32;99165.91;4988690;28;20087;-71
2022/02/20 07:31:26;;;;;;;12.80;6.03;;;;;;;6.86;44.15;99167.22;4992830;28;20706;-74
2022/02/20 07:33:55;;;;;;;14.13;6.45;;;;;;;6.87;44.11;99161.88;4991065;28;20050;-73
2022/02/20 07:36:22;;;;;;;14.82;6.20;;;;;;;6.92;44.04;99163.34;4991242;28;20050;-71
2022/02/20 07:38:49;;;;;;;12.75;6.50;;;;;;;7.05;43.85;99158.81;4991246;28;20050;-74
2022/02/20 07:41:17;;;;;;;14.45;6.38;;;;;;;7.18;43.57;99156.09;4990629;28;20557;-71
2022/02/20 07:43:48;;;;;;;10.60;6.18;;;;;;;7.36;43.22;99154.69;4990759;28;20730;-70
2022/02/20 07:46:15;;;;;;;22.73;8.00;;;;;;;7.61;43.05;99151.00;4988606;28;20402;-70
2022/02/20 07:48:43;;;;;;;19.10;6.43;;;;;;;7.80;42.74;99155.69;4988142;28;20050;-70
2022/02/20 07:51:12;;;;;;;10.32;5.30;;;;;;;7.91;42.61;99146.94;4992355;28;20050;-70
2022/02/20 07:53:41;;;;;;;8.80;5.53;;;;;;;7.92;42.43;99151.22;4988614;28;20154;-71
2022/02/20 07:56:08;;;;;;;14.07;5.25;;;;;;;7.90;42.49;99139.16;4989341;28;20050;-71
2022/02/20 07:58:36;;;;;;;12.85;6.05;;;;;;;7.85;42.47;99142.19;4989888;28;20042;-71
2022/02/20 08:01:04;;;;;;;18.63;7.38;;;;;;;7.79;42.57;99146.09;4990149;28;20051;-70
2022/02/20 08:03:31;;;;;;;13.77;6.85;;;;;;;7.70;42.81;99149.47;4990126;28;20486;-70
2022/02/20 08:05:59;;;;;;;10.07;5.05;;;;;;;7.64;42.84;99150.78;4990565;28;20038;-70
2022/02/20 08:08:28;;;;;;;8.95;4.95;;;;;;;7.58;42.79;99150.41;4990665;28;20064;-73
2022/02/20 08:10:55;;;;;;;10.93;6.00;;;;;;;7.51;42.86;99149.22;4989160;28;20145;-75
2022/02/20 08:13:22;;;;;;;10.43;5.50;;;;;;;7.46;42.88;99153.03;4982249;28;20057;-72
2022/02/20 08:15:49;;;;;;;8.98;5.32;;;;;;;7.46;43.05;99145.16;4989025;28;20034;-70
2022/02/20 08:18:16;;;;;;;12.55;5.97;;;;;;;7.47;42.95;99138.97;4994423;28;20053;-70
2022/02/20 08:20:44;;;;;;;14.20;5.03;;;;;;;7.51;42.95;99143.97;4992802;28;20077;-69
2022/02/20 08:23:11;;;;;;;9.07;5.32;;;;;;;7.49;43.01;99144.09;4993156;28;20599;-71
2022/02/20 08:25:40;;;;;;;12.07;5.85;;;;;;;7.56;42.97;99147.06;4988122;28;20048;-71
2022/02/20 08:28:07;;;;;;;16.10;4.65;;;;;;;7.63;43.09;99150.91;4994229;28;20054;-72
2022/02/20 08:30:34;;;;;;;11.80;5.63;;;;;;;7.77;43.07;99149.81;4995323;28;20488;-71
2022/02/20 08:33:03;;;;;;;11.98;5.07;;;;;;;7.83;43.11;99160.69;4993526;28;20109;-73
2022/02/20 08:35:30;;;;;;;12.95;5.80;;;;;;;7.96;42.95;99141.31;5003745;28;20042;-70
2022/02/20 08:37:58;;;;;;;12.18;4.38;;;;;;;8.00;43.18;99148.00;4991151;28;20514;-68
2022/02/20 08:40:34;;;;;;;9.88;4.38;;;;;;;7.98;43.86;99148.13;4993149;28;20133;-71
2022/02/20 08:43:03;;;;;;;9.35;3.17;;;;;;;7.99;44.06;99141.06;4992390;28;20042;-73
2022/02/20 08:45:30;;;;;;;7.10;3.67;;;;;;;8.00;44.21;99150.63;4992498;28;20043;-71
2022/02/20 08:47:57;;;;;;;4.00;2.65;;;;;;;8.01;44.31;99139.16;4995274;28;20163;-68
2022/02/20 08:50:24;;;;;;;11.63;5.40;;;;;;;8.08;44.44;99142.97;4991065;28;20117;-70
2022/02/20 08:52:51;;;;;;;5.25;3.03;;;;;;;8.15;44.48;99144.13;4993092;28;20041;-72
2022/02/20 08:55:18;;;;;;;9.90;5.35;;;;;;;8.20;44.63;99143.78;4991653;28;20068;-71
2022/02/20 08:57:45;;;;;;;8.77;3.50;;;;;;;8.16;44.82;99143.19;4990129;28;20048;-70
2022/02/20 09:00:15;;;;;;;5.90;3.65;;;;;;;8.13;44.96;99148.69;4990199;28;20068;-70
2022/02/20 09:02:42;;;;;;;16.27;4.57;;;;;;;8.09;45.32;99136.75;4990840;28;20046;-73
2022/02/20 09:05:10;;;;;;;15.55;5.80;;;;;;;8.04;45.82;99144.16;4991703;28;20057;-70
2022/02/20 09:07:38;;;;;;;13.13;5.18;;;;;;;8.08;45.98;99142.97;4992911;28;20050;-72
2022/02/20 09:10:08;;;;;;;12.13;4.55;;;;;;;8.08;46.23;99142.97;4990843;28;20058;-70
2022/02/20 09:12:35;;;;;;;14.02;7.65;;;;;;;8.07;46.65;99136.03;4991805;28;20053;-69
2022/02/20 09:15:02;;;;;;;11.45;5.15;;;;;;;8.14;46.84;99139.84;4990834;28;20050;-71
2022/02/20 09:17:31;;;;;;;14.57;4.90;;;;;;;8.33;46.70;99125.22;4999212;28;20053;-70
2022/02/20 09:19:58;;;;;;;7.25;4.05;;;;;;;8.51;46.48;99136.88;4990949;28;20141;-71
2022/02/20 09:22:25;;;;;;;8.57;5.03;;;;;;;8.59;47.31;99142.38;4989107;28;20054;-72
2022/02/20 09:24:52;;;;;;;8.43;5.18;;;;;;;8.47;47.59;99142.53;4993649;28;20037;-71
2022/02/20 09:27:19;;;;;;;8.10;4.47;;;;;;;8.26;47.97;99145.09;4992061;28;20132;-73
2022/02/20 09:29:46;;;;;;;7.72;3.55;;;;;;;8.04;48.58;99139.75;4992221;28;20038;-72
2022/02/20 09:32:14;;;;;;;10.43;4.78;;;;;;;7.92;49.19;99140.72;4987915;28;20073;-72
2022/02/20 09:34:43;;;;;;;9.93;4.22;;;;;;;7.83;49.51;99133.56;4990378;28;20124;-70
2022/02/20 09:37:10;;;;;;;11.40;6.55;;;;;;;7.88;49.63;99143.72;4992860;28;20039;-71
2022/02/20 09:39:41;;;;;;;12.48;5.97;;;;;;;7.87;50.16;99142.91;4990397;28;20481;-71
2022/02/20 09:42:11;;;;;;;11.45;5.05;;;;;;;7.92;50.06;99134.63;4975487;28;20065;-73
2022/02/20 09:44:38;;;;;;;7.45;4.65;;;;;;;7.91;50.47;99149.56;4991809;28;20050;-74
2022/02/20 09:47:07;;;;;;;7.22;4.32;;;;;;;7.93;50.53;99144.19;4989663;28;20042;-71
2022/02/20 09:49:35;;;;;;;9.73;4.63;;;;;;;7.92;50.46;99153.03;4990788;28;20664;-70
2022/02/20 09:52:04;;;;;;;5.57;2.70;;;;;;;7.90;50.41;99144.44;4989118;28;20073;-70
2022/02/20 09:54:32;;;;;;;6.25;3.80;;;;;;;7.84;50.65;99146.59;4989938;28;20041;-71
2022/02/20 09:56:59;;;;;;;10.30;4.30;;;;;;;7.89;50.29;99134.88;4991870;28;20038;-72
2022/02/20 09:59:26;;;;;;;6.22;3.30;;;;;;;7.93;50.39;99138.94;4990889;28;20043;-71
2022/02/20 10:02:07;;;;;;;5.60;3.17;;;;;;;7.86;51.04;99138.56;4991724;28;20121;-71
2022/02/20 10:04:41;;;;;;;5.65;3.13;;;;;;;7.82;50.85;99143.25;4989268;28;20130;-70
2022/02/20 10:07:25;;;;;;;6.40;4.35;;;;;;;7.82;50.80;99153.75;4988334;28;20061;-71
2022/02/20 10:09:52;;;;;;;9.95;4.35;;;;;;;7.78;50.92;99147.06;4991543;28;20044;-71
2022/02/20 10:12:21;;;;;;;6.28;3.92;;;;;;;7.72;50.96;99158.06;4990244;28;20042;-72
2022/02/20 10:14:48;;;;;;;12.90;4.65;;;;;;;7.66;51.08;99159.38;4989416;28;20127;-72
2022/02/20 10:17:17;;;;;;;7.63;4.03;;;;;;;7.63;51.34;99166.66;4982945;28;20220;-70
2022/02/20 10:20:04;;;;;;;9.23;4.32;;;;;;;7.61;51.53;99156.25;4978662;28;20050;-73
2022/02/20 10:22:34;;;;;;;15.70;7.57;;;;;;;7.58;51.43;99150.41;4981455;28;20416;-71
2022/02/20 10:25:08;;;;;;;11.43;5.85;;;;;;;7.52;51.98;99146.47;4978557;28;20514;-71
2022/02/20 10:27:36;;;;;;;10.88;4.75;;;;;;;7.45;52.16;99146.13;4980095;28;20084;-73
2022/02/20 10:30:15;;;;;;;9.02;5.57;;;;;;;7.43;52.49;99148.00;4981136;28;20165;-71
2022/02/20 10:32:43;;;;;;;13.07;7.18;;;;;;;7.44;52.56;99154.13;4981995;28;20605;-72
2022/02/20 10:35:12;;;;;;;12.98;5.35;;;;;;;7.47;52.42;99141.59;4983380;28;20080;-71
2022/02/20 10:37:42;;;;;;;12.32;4.90;;;;;;;7.47;52.44;99153.88;4990313;28;20085;-72
2022/02/20 10:40:24;;;;;;;11.77;5.63;;;;;;;7.42;52.66;99145.53;4988111;28;20618;-72
2022/02/20 10:42:54;;;;;;;11.20;6.90;;;;;;;7.47;52.79;99146.00;4990976;28;20612;-72
2022/02/20 10:45:25;;;;;;;9.68;5.25;;;;;;;7.44;52.94;99149.69;4990676;28;20056;-73
2022/02/20 10:47:53;;;;;;;10.95;5.53;;;;;;;7.45;53.15;99150.53;4989079;28;20058;-71
2022/02/20 10:50:23;;;;;;;11.55;6.03;;;;;;;7.45;53.69;99138.25;4987664;28;20050;-72
2022/02/20 10:53:07;;;;;;;10.73;6.25;;;;;;;7.51;53.44;99141.34;4987994;28;20052;-72
2022/02/20 10:55:40;;;;;;;9.88;5.90;;;;;;;7.53;53.53;99139.44;4987079;28;20142;-72
2022/02/20 10:58:12;;;;;;;8.32;4.60;;;;;;;7.56;53.29;99153.19;4989419;28;20048;-73
2022/02/20 11:00:50;;;;;;;9.00;5.82;;;;;;;7.66;53.20;99133.09;4991739;28;20282;-69
2022/02/20 11:03:18;;;;;;;11.18;8.18;;;;;;;7.88;52.76;99139.28;4991334;28;20049;-68
2022/02/20 11:05:46;;;;;;;11.75;7.15;;;;;;;7.99;52.86;99135.81;4989357;28;20894;-69
2022/02/20 11:08:16;;;;;;;9.70;6.30;;;;;;;7.94;53.10;99136.19;4988696;28;20044;-69
2022/02/20 11:10:44;;;;;;;9.10;6.03;;;;;;;7.99;52.97;99133.19;4988487;28;20129;-72
2022/02/20 11:13:12;;;;;;;10.02;6.15;;;;;;;8.00;52.79;99137.50;4989758;28;20058;-70
2022/02/20 11:15:40;;;;;;;10.88;6.57;;;;;;;7.95;53.23;99145.72;4993380;28;20167;-69
2022/02/20 11:18:09;;;;;;;11.75;7.32;;;;;;;7.89;53.68;99140.16;4988225;28;20164;-70
2022/02/20 11:20:40;;;;;;;15.43;7.90;;;;;;;7.96;53.18;99154.44;4988639;28;20052;-69
2022/02/20 11:23:09;;;;;;;12.95;7.25;;;;;;;7.87;53.59;99155.19;4988358;28;20121;-70
2022/02/20 11:25:40;;;;;;;16.50;8.43;;;;;;;7.87;53.48;99155.19;4969852;28;20216;-72
2022/02/20 11:28:07;;;;;;;13.18;7.03;;;;;;;7.91;53.38;99156.63;4988940;28;20549;-75
2022/02/20 11:30:36;;;;;;;9.82;6.20;;;;;;;7.92;53.59;99151.22;4987197;28;20103;-72
2022/02/20 11:33:07;;;;;;;12.07;7.97;;;;;;;7.98;53.49;99157.81;4986940;28;20601;-69
2022/02/20 11:35:38;;;;;;;9.48;5.55;;;;;;;7.89;53.85;99153.28;4984227;28;20050;-71
2022/02/20 11:38:08;;;;;;;8.55;5.88;;;;;;;7.97;53.43;99153.50;4986773;28;20046;-70
2022/02/20 11:43:45;;;;;;;;;;;;;;;8.21;53.33;99151.56;5096022;27;20391;-74